EKVG Airport Information

Runway Information
Runway 12 Length 5902 ft width 98 ft
Elevation 268 ft Threshold ft Heading 118
Runway 30 Length 5902 ft Width 98 ft
Elevation 252 ft Threshold ft Heading 298
Airport Frequencies
Type AFIS Name AFIS Frequency 124.85 MHZ
Airport Navaids
Type NDB Name Myggenes Frequency 337 KHZ
Type NDB Name Nolso Frequency 404 KHZ
Type NDB Name Vagar Frequency 348 KHZ
Airport Weather Information & NOTAM
ADDS - METARS form results

(1659 UTC 15 August 2022)
Data provider http://aviationweather.gov/metar/data/
 
METAR text: EKVG 151650Z AUTO 36017KT 9999 NCD 10/06 Q1009 RMK NCD WIND SKEID 35022KT
Conditions at: EKVG (SORVAAG/VAGAR , DK) observed 1650 UTC 15 August 2022
Temperature: 10.0°C (50°F)
Dewpoint: 6.0°C (43°F) [RH = 76%]
Pressure (altimeter): 29.79 inches Hg (1009.0 mb)
Winds: from the N (360 degrees) at 20 MPH (17 knots; 8.7 m/s)
Visibility: 6 or more miles (10+ km)
Ceiling: at least 12,000 feet AGL
Clouds: sky clear below 12,000 feet AGL
Weather: no significant weather observed at this time

METAR text: EKVG 151620Z AUTO 35017KT 9999 FEW016/// 11/06 Q1009 RMK FEW034/// WIND SKEID 35022G33KT
Conditions at: EKVG (SORVAAG/VAGAR , DK) observed 1620 UTC 15 August 2022
Temperature: 11.0°C (52°F)
Dewpoint: 6.0°C (43°F) [RH = 71%]
Pressure (altimeter): 29.79 inches Hg (1009.0 mb)
Winds: from the N (350 degrees) at 20 MPH (17 knots; 8.7 m/s)
Visibility: 6 or more miles (10+ km)
Ceiling: at least 12,000 feet AGL
Clouds: few clouds at 1600 feet AGL
Weather: no significant weather observed at this time

Forecast for: EKVG (SORVAAG/VAGAR , DK)
Text: TAF EKVG 151421Z 1515/1521 36015KT 9999 SCT015 BKN040
Forecast period: 1500 to 2100 UTC 15 August 2022
Forecast type: FROM: standard forecast or significant change
Winds: from the N (360 degrees) at 17 MPH (15 knots; 7.7 m/s)
Visibility: 6 or more miles (10+ km)
Ceiling: 4000 feet AGL
Clouds: scattered clouds at 1500 feet AGL
broken clouds at 4000 feet AGL
Weather: no significant weather forecast for this period